Latest Weather Observations for Friendly Beaches

IDT60801

Issued at 5:01 pm EST Tuesday 7 July 2015 (issued every 30 minutes, with the page automatically refreshed every 10 minutes)

About weather observations | Map of weather stations | Latest weather observations for TAS | Other Formats
Station Details ID: 092114 Name: FRIENDLY BEACHES Lat: -42.00 Lon: 148.28 Height: 55.0 m
Data from the previous 72 hours. | See also: Recent months at Friendly Beaches
Date/Time
EST
Temp
°C
App
Temp
°C
Dew
Point
Rel
Hum
%
Delta-T
°C
Wind Press
QNH
hPa
Press
MSL
hPa
Rain
since 9 am
mm
Dir
 
Spd
km/h
Gust
km/h
Spd
kts
Gust
kts
07/05:00pm 5.2 2.0 3.2 87 0.8 SW 9 13 5 7 1026.2 1026.3 0.4
07/04:30pm 5.9 2.9 4.1 88 0.8 WSW 9 15 5 8 1026.0 1026.1 0.4
07/04:00pm 6.1 3.5 4.3 88 0.8 W 7 11 4 6 1025.8 1025.9 0.4
07/03:30pm 7.0 3.2 4.1 82 1.3 SSW 13 20 7 11 1025.5 1025.6 0.4
07/03:00pm 7.7 4.9 5.2 84 1.1 WSW 9 13 5 7 1025.4 1025.5 0.4
07/02:30pm 7.2 4.4 5.2 87 0.9 WSW 9 15 5 8 1025.2 1025.3 0.4
07/02:00pm 7.5 4.0 5.3 86 1.0 SW 13 20 7 11 1025.0 1025.1 0.4
07/01:30pm 7.3 4.4 4.8 84 1.1 SW 9 17 5 9 1025.0 1025.1 0.4
07/01:00pm 7.8 4.7 5.6 86 1.0 SW 11 20 6 11 1025.0 1025.1 0.4
07/12:30pm 7.1 4.0 5.6 90 0.7 WSW 11 17 6 9 1025.1 1025.2 0.4
07/12:00pm 7.1 3.1 4.9 86 1.0 SSW 15 28 8 15 1025.2 1025.3 0.2
07/11:30am 7.5 3.8 4.6 82 1.3 SW 13 24 7 13 1025.0 1025.1 0.0
07/11:00am 6.5 3.2 4.3 86 0.9 SW 11 20 6 11 1025.2 1025.3 0.0
07/10:30am 6.5 2.4 4.3 86 0.9 SW 15 20 8 11 1025.1 1025.2 0.0
07/10:00am 5.6 2.2 4.2 91 0.6 WSW 11 15 6 8 1024.9 1025.0 0.0
07/09:30am 5.4 1.7 4.5 94 0.4 WSW 13 19 7 10 1024.6 1024.7 0.0
07/09:00am 4.9 1.2 4.2 95 0.3 SW 13 26 7 14 1024.4 1024.5 2.8
07/08:30am 4.3 0.4 3.4 94 0.4 W 13 19 7 10 1024.0 1024.1 2.6
07/08:00am 4.2 -0.1 3.3 94 0.4 WSW 15 24 8 13 1023.7 1023.8 2.6
07/07:30am 3.9 -0.1 3.0 94 0.4 W 13 19 7 10 1023.4 1023.5 2.6
07/07:00am 4.4 0.5 3.5 94 0.4 WSW 13 20 7 11 1023.1 1023.2 2.6
07/06:30am 4.4 0.5 3.5 94 0.4 WSW 13 24 7 13 1022.8 1022.9 2.4
07/06:00am 4.0 0.0 2.8 92 0.5 WSW 13 19 7 10 1022.3 1022.4 2.2
07/05:30am 4.0 0.8 2.8 92 0.5 WSW 9 15 5 8 1022.0 1022.1 2.2
07/05:00am 4.0 -0.1 2.4 89 0.6 WSW 13 20 7 11 1021.6 1021.7 1.8
07/04:30am 3.8 -0.3 2.0 88 0.7 WSW 13 20 7 11 1021.5 1021.6 1.8
07/04:00am 4.1 0.4 2.5 89 0.6 WSW 11 17 6 9 1021.3 1021.4 1.6
07/03:30am 4.2 -0.3 2.1 86 0.8 WSW 15 22 8 12 1021.0 1021.1 1.4
07/03:00am 4.3 0.2 2.5 88 0.7 WSW 13 26 7 14 1021.3 1021.4 1.4
07/02:30am 4.6 0.6 2.6 87 0.8 WSW 13 17 7 9 1021.4 1021.5 1.2
07/02:00am 5.0 0.6 2.7 85 0.9 SW 15 24 8 13 1020.9 1020.9 1.0
07/01:30am 4.9 0.5 2.9 87 0.8 SW 15 26 8 14 1020.7 1020.7 1.0
07/01:00am 4.9 0.1 2.4 84 1.0 WSW 17 26 9 14 1020.5 1020.5 1.0
07/12:30am 4.2 0.1 2.1 86 0.8 WSW 13 20 7 11 1020.5 1020.5 1.0
07/12:00am 4.3 -0.2 2.3 87 0.8 WSW 15 20 8 11 1020.4 1020.4 1.0
 
Date/Time
EST
Temp
°C
App
Temp
°C
Dew
Point
Rel
Hum
%
Delta-T
°C
Wind Press
QNH
hPa
Press
MSL
hPa
Rain
since 9 am
mm
Dir
 
Spd
km/h
Gust
km/h
Spd
kts
Gust
kts
06/11:30pm 4.0 -0.4 2.5 90 0.6 WSW 15 20 8 11 1020.4 1020.4 1.0
06/11:00pm 3.9 -0.5 2.7 92 0.5 WSW 15 19 8 10 1020.3 1020.3 1.0
06/10:30pm 4.2 0.2 2.9 91 0.5 WSW 13 19 7 10 1020.3 1020.3 0.8
06/10:00pm 4.0 0.0 2.8 92 0.5 WSW 13 17 7 9 1020.1 1020.1 0.6
06/09:30pm 4.2 0.6 3.0 92 0.5 W 11 15 6 8 1019.8 1019.9 0.6
06/09:00pm 4.5 0.9 3.0 90 0.6 WSW 11 17 6 9 1019.8 1019.9 0.4
06/08:30pm 4.8 1.2 3.0 88 0.7 SW 11 17 6 9 1019.6 1019.7 0.2
06/08:00pm 5.3 1.1 1.8 78 1.4 WSW 13 19 7 10 1019.2 1019.3 0.0
06/07:30pm 5.8 1.6 1.9 76 1.6 WSW 13 19 7 10 1019.1 1019.2 0.0
06/07:00pm 6.0 2.7 0.3 67 2.2 SW 7 11 4 6 1018.7 1018.8 0.0
06/06:30pm 6.2 1.2 -1.0 60 2.7 SSW 15 30 8 16 1018.6 1018.7 0.0
06/06:00pm 6.2 1.6 -1.2 59 2.8 SSW 13 24 7 13 1018.1 1018.2 0.0
06/05:30pm 6.6 2.6 0.3 64 2.5 SSW 11 17 6 9 1017.7 1017.8 0.0
06/05:00pm 6.0 2.0 0.6 68 2.1 SSW 11 15 6 8 1017.4 1017.5 0.0
06/04:30pm 6.8 3.0 1.5 69 2.1 SSW 11 20 6 11 1017.1 1017.2 0.0
06/04:00pm 7.6 2.4 2.3 69 2.2 SSW 19 26 10 14 1016.8 1016.9 0.0
06/03:30pm 7.0 3.8 3.3 77 1.6 SW 9 15 5 8 1016.6 1016.7 0.0
06/03:00pm 7.6 4.5 3.5 75 1.7 S 9 20 5 11 1016.5 1016.6 0.0
06/02:30pm 7.4 3.7 4.4 81 1.3 SSW 13 20 7 11 1016.2 1016.3 0.0
06/02:00pm 7.3 3.8 3.7 78 1.5 SSW 11 19 6 10 1016.0 1016.1 0.0
06/01:30pm 8.9 4.7 3.7 70 2.3 SSW 15 26 8 14 1016.0 1016.1 0.0
06/01:00pm 8.5 4.7 4.1 74 1.9 SSW 13 20 7 11 1016.0 1016.1 0.0
06/12:30pm 8.9 5.5 3.9 71 2.2 S 11 30 6 16 1016.0 1016.1 0.0
06/12:00pm 8.9 4.7 3.7 70 2.3 SSE 15 20 8 11 1016.2 1016.3 0.0
06/11:30am 7.9 2.7 3.6 74 1.8 S 20 33 11 18 1016.3 1016.4 0.0
06/11:00am 8.1 4.9 3.2 71 2.1 S 9 17 5 9 1016.6 1016.7 0.0
06/10:30am 7.7 4.3 4.1 78 1.6 S 11 22 6 12 1016.6 1016.7 0.0
06/10:00am 7.2 4.2 4.3 82 1.3 S 9 15 5 8 1016.5 1016.6 0.0
06/09:30am 6.9 3.2 4.2 83 1.2 SSW 13 26 7 14 1016.3 1016.4 0.0
06/09:00am 6.9 3.8 3.5 79 1.4 SW 9 15 5 8 1015.9 1016.0 1.0
06/08:30am 6.5 3.1 4.0 84 1.1 SSW 11 17 6 9 1015.7 1015.8 1.0
06/08:00am 6.3 3.0 4.3 87 0.9 SSW 11 17 6 9 1015.4 1015.5 1.0
06/07:30am 6.1 3.2 4.6 90 0.6 SSW 9 13 5 7 1015.3 1015.4 1.0
06/07:00am 6.1 2.9 4.9 92 0.5 SSW 11 17 6 9 1015.1 1015.2 1.0
06/06:30am 6.1 3.3 5.1 93 0.4 SSW 9 17 5 9 1014.8 1014.9 1.0
06/06:00am 6.2 3.5 5.5 95 0.3 SSW 9 17 5 9 1014.8 1014.9 1.0
06/05:30am 6.4 4.3 6.0 97 0.2 WSW 6 9 3 5 1014.6 1014.7 1.0
06/05:00am 6.5 4.5 6.1 97 0.2 W 6 9 3 5 1014.4 1014.5 0.8
06/04:30am 6.5 4.5 6.1 97 0.2 WNW 6 7 3 4 1014.2 1014.3 0.8
06/04:00am 6.4 4.2 6.0 97 0.2 W 7 9 4 5 1014.1 1014.2 0.8
06/03:30am 6.4 4.2 6.0 97 0.2 W 7 11 4 6 1014.1 1014.2 0.6
06/03:00am 6.5 4.2 5.9 96 0.3 W 7 9 4 5 1014.2 1014.3 0.6
06/02:30am 6.5 4.2 5.9 96 0.3 W 7 11 4 6 1014.4 1014.5 0.4
06/02:00am 6.6 4.0 6.0 96 0.3 WNW 9 11 5 6 1014.1 1014.2 0.4
06/01:30am 6.6 4.4 6.0 96 0.3 WNW 7 9 4 5 1014.2 1014.3 0.4
06/01:00am 6.7 4.6 6.0 95 0.3 WNW 6 9 3 5 1014.4 1014.5 0.4
06/12:30am 6.9 4.3 6.0 94 0.4 W 9 15 5 8 1014.6 1014.7 0.4
06/12:00am 7.2 4.6 6.0 92 0.5 W 9 11 5 6 1014.7 1014.8 0.4
 
Date/Time
EST
Temp
°C
App
Temp
°C
Dew
Point
Rel
Hum
%
Delta-T
°C
Wind Press
QNH
hPa
Press
MSL
hPa
Rain
since 9 am
mm
Dir
 
Spd
km/h
Gust
km/h
Spd
kts
Gust
kts
05/11:30pm 7.6 5.8 5.4 86 1.0 SW 4 6 2 3 1014.8 1014.9 0.2
05/11:00pm 7.6 5.4 5.4 86 1.0 SW 6 9 3 5 1014.7 1014.8 0.2
05/10:30pm 7.7 5.3 5.2 84 1.1 WNW 7 9 4 5 1014.7 1014.8 0.2
05/10:00pm 7.7 5.3 5.2 84 1.1 W 7 9 4 5 1014.7 1014.8 0.2
05/09:30pm 7.9 5.6 5.0 82 1.3 WNW 6 7 3 4 1014.6 1014.7 0.2
05/09:00pm 8.0 5.8 5.3 83 1.2 W 6 7 3 4 1014.6 1014.7 0.2
05/08:30pm 8.1 5.8 5.0 81 1.4 W 6 6 3 3 1014.4 1014.5 0.2
05/08:00pm 8.1 6.2 5.0 81 1.4 W 4 6 2 3 1014.4 1014.5 0.2
05/07:30pm 8.3 5.9 4.1 75 1.8 SSW 6 6 3 3 1014.4 1014.5 0.2
05/07:00pm 8.2 6.7 5.0 80 1.4 WSW 2 4 1 2 1014.4 1014.5 0.2
05/06:30pm 8.5 6.6 4.9 78 1.6 SW 4 6 2 3 1014.2 1014.3 0.2
05/06:00pm 8.4 6.6 5.5 82 1.3 W 4 6 2 3 1013.9 1014.0 0.2
05/05:30pm 8.6 6.4 5.5 81 1.4 W 6 7 3 4 1013.7 1013.8 0.2
05/05:00pm 8.6 6.4 5.5 81 1.4 W 6 7 3 4 1013.6 1013.7 0.2
05/04:30pm 8.8 6.7 5.7 81 1.4 WNW 6 7 3 4 1013.4 1013.5 0.2
05/04:00pm 9.2 7.5 5.8 79 1.6 WNW 4 6 2 3 1013.3 1013.4 0.2
05/03:30pm 9.6 7.9 6.1 79 1.6 WNW 4 6 2 3 1013.1 1013.2 0.2
05/03:00pm 9.9 9.0 6.1 77 1.8 CALM 0 0 0 0 1013.0 1013.1 0.2
05/02:30pm 10.1 9.3 6.3 77 1.8 CALM 0 0 0 0 1012.9 1013.0 0.2
05/02:00pm 10.3 9.5 6.6 78 1.7 CALM 0 0 0 0 1013.0 1013.1 0.2
05/01:30pm 10.1 9.3 6.6 79 1.6 CALM 0 0 0 0 1013.0 1013.1 0.2
05/01:00pm 9.7 9.0 6.8 82 1.4 CALM 0 0 0 0 1013.1 1013.2 0.2
05/12:30pm 9.4 8.8 7.3 87 1.0 CALM 0 0 0 0 1013.4 1013.5 0.2
05/12:00pm 9.0 8.3 7.0 87 0.9 CALM 0 0 0 0 1013.5 1013.6 0.2
05/11:30am 8.5 7.7 6.5 87 0.9 CALM 0 0 0 0 1013.9 1014.0 0.2
05/11:00am 9.0 7.9 6.8 86 1.0 NNW 2 4 1 2 1014.2 1014.3 0.0
05/10:30am 9.3 7.5 5.3 76 1.8 WNW 4 6 2 3 1014.3 1014.4 0.0
05/10:00am 8.8 7.6 4.8 76 1.8 CALM 0 0 0 0 1014.2 1014.3 0.0
05/09:30am 8.4 7.0 3.7 72 2.0 CALM 0 0 0 0 1014.2 1014.3 0.0
05/09:00am 8.1 6.6 3.2 71 2.1 CALM 0 0 0 0 1014.2 1014.3 0.0
05/08:30am 8.0 6.3 2.0 66 2.5 CALM 0 0 0 0 1014.1 1014.2 0.0
05/08:00am 7.7 5.9 1.1 63 2.7 CALM 0 0 0 0 1014.0 1014.1 0.0
05/07:30am 7.5 4.9 1.1 64 2.6 WSW 4 7 2 4 1013.7 1013.8 0.0
05/07:00am 7.5 5.3 0.9 63 2.6 W 2 4 1 2 1013.6 1013.7 0.0
05/06:30am 7.3 4.4 1.2 65 2.5 WNW 6 9 3 5 1013.6 1013.7 0.0
05/06:00am 7.5 4.5 0.9 63 2.6 WNW 6 9 3 5 1013.4 1013.5 0.0
05/05:30am 8.1 4.9 1.0 61 2.9 WSW 7 11 4 6 1013.4 1013.5 0.0
05/05:00am 7.4 4.9 1.3 65 2.5 W 4 6 2 3 1013.5 1013.6 0.0
05/04:30am 7.0 4.5 1.3 67 2.3 W 4 7 2 4 1013.5 1013.6 0.0
05/04:00am 7.3 4.4 1.2 65 2.5 W 6 7 3 4 1013.5 1013.6 0.0
05/03:30am 7.7 4.7 1.1 63 2.7 SW 6 7 3 4 1013.7 1013.8 0.0
05/03:00am 7.5 4.5 0.9 63 2.6 WSW 6 7 3 4 1013.7 1013.8 0.0
05/02:30am 7.2 4.2 1.1 65 2.4 WSW 6 9 3 5 1013.8 1013.9 0.0
05/02:00am 8.2 5.5 0.2 57 3.2 WSW 4 6 2 3 1013.9 1014.0 0.0
05/01:30am 8.2 5.1 0.2 57 3.2 WSW 6 6 3 3 1013.9 1014.0 0.0
05/01:00am 8.0 6.0 0.0 57 3.2 CALM 0 0 0 0 1014.0 1014.1 0.0
05/12:30am 8.1 6.2 0.6 59 3.0 CALM 0 0 0 0 1014.0 1014.1 0.0
05/12:00am 8.3 5.6 0.5 58 3.1 WSW 4 6 2 3 1013.9 1014.0 0.0
 
Date/Time
EST
Temp
°C
App
Temp
°C
Dew
Point
Rel
Hum
%
Delta-T
°C
Wind Press
QNH
hPa
Press
MSL
hPa
Rain
since 9 am
mm
Dir
 
Spd
km/h
Gust
km/h
Spd
kts
Gust
kts
04/11:30pm 8.3 6.4 0.8 59 3.0 CALM 0 0 0 0 1014.0 1014.1 0.0
04/11:00pm 8.3 5.7 1.2 61 2.9 NW 4 6 2 3 1013.9 1014.0 0.0
04/10:30pm 8.7 5.5 0.9 58 3.2 WNW 7 9 4 5 1013.8 1013.9 0.0
04/10:00pm 9.4 6.4 0.6 54 3.6 W 6 11 3 6 1014.0 1014.1 0.0
04/09:30pm 9.9 4.7 0.3 51 3.9 WSW 17 26 9 14 1013.7 1013.8 0.0
04/09:00pm 9.8 4.7 0.7 53 3.7 WSW 17 24 9 13 1013.8 1013.9 0.0
04/08:30pm 9.9 5.6 1.3 55 3.6 SW 13 20 7 11 1013.8 1013.9 0.0
04/08:00pm 9.9 6.5 1.8 57 3.4 SW 9 15 5 8 1013.9 1014.0 0.0
04/07:30pm 10.1 6.0 2.0 57 3.4 SW 13 24 7 13 1013.6 1013.7 0.0
04/07:00pm 10.0 6.5 1.4 55 3.6 SW 9 15 5 8 1013.4 1013.5 0.0
04/06:30pm 10.4 6.5 1.2 53 3.8 SW 11 19 6 10 1013.0 1013.1 0.0
04/06:00pm 10.5 6.3 1.6 54 3.7 SSW 13 19 7 10 1012.7 1012.8 0.0
04/05:30pm 10.6 6.7 1.4 53 3.9 SW 11 17 6 9 1012.4 1012.5 0.0

Other Formats:

Comma delimited format used in spreadsheet applications
http://www.bom.gov.au/fwo/IDT60801/IDT60801.94987.axf

JavaScript Object Notation format (JSON) in row-major order
http://www.bom.gov.au/fwo/IDT60801/IDT60801.94987.json